Terminal Aerodrome Forecast
Issued by NWS

Home | Current Version | Previous Version | Text Only | Print | Product List | Glossary On
Versions: 1 2 3 4 5 6 7 8 9 10 11 12 13 14 15
000
FTUS45 KVEF 061135
TAFEED
TAF
KEED 061135Z 0612/0712 21011KT P6SM FEW120 BKN250
     FM061700 20012G20KT P6SM FEW120 BKN250
     FM061900 20016G26KT P6SM FEW120 SCT250=

USA.gov is the U.S. government's official web portal to all federal, state and local government web resources and services.